sensor_id;sensor_type;location;lat;lon;timestamp;P1;durP1;ratioP1;P2;durP2;ratioP2
61391;SDS011;47261;52.892;5.738;2024-03-22T00:01:44;32.73;;;19.33;;
61391;SDS011;47261;52.892;5.738;2024-03-22T00:04:10;31.88;;;14.88;;
61391;SDS011;47261;52.892;5.738;2024-03-22T00:06:36;33.88;;;17.45;;
61391;SDS011;47261;52.892;5.738;2024-03-22T00:09:02;29.93;;;17.00;;
61391;SDS011;47261;52.892;5.738;2024-03-22T00:11:28;26.50;;;14.82;;
61391;SDS011;47261;52.892;5.738;2024-03-22T00:13:53;29.77;;;16.73;;
61391;SDS011;47261;52.892;5.738;2024-03-22T00:16:19;28.23;;;14.83;;
61391;SDS011;47261;52.892;5.738;2024-03-22T00:18:44;28.17;;;13.50;;
61391;SDS011;47261;52.892;5.738;2024-03-22T00:21:10;23.73;;;12.98;;
61391;SDS011;47261;52.892;5.738;2024-03-22T00:23:35;29.60;;;15.13;;
61391;SDS011;47261;52.892;5.738;2024-03-22T00:26:01;34.33;;;17.30;;
61391;SDS011;47261;52.892;5.738;2024-03-22T00:28:27;31.43;;;15.90;;
61391;SDS011;47261;52.892;5.738;2024-03-22T00:30:52;33.63;;;16.60;;
61391;SDS011;47261;52.892;5.738;2024-03-22T00:33:18;35.47;;;16.13;;
61391;SDS011;47261;52.892;5.738;2024-03-22T00:35:44;39.50;;;24.27;;
61391;SDS011;47261;52.892;5.738;2024-03-22T00:38:09;31.92;;;15.13;;
61391;SDS011;47261;52.892;5.738;2024-03-22T00:40:35;39.13;;;18.80;;
61391;SDS011;47261;52.892;5.738;2024-03-22T00:43:00;41.83;;;17.90;;
61391;SDS011;47261;52.892;5.738;2024-03-22T00:45:26;37.43;;;18.60;;
61391;SDS011;47261;52.892;5.738;2024-03-22T00:47:51;32.57;;;15.70;;
61391;SDS011;47261;52.892;5.738;2024-03-22T00:50:17;37.53;;;19.75;;
61391;SDS011;47261;52.892;5.738;2024-03-22T00:52:43;33.72;;;16.58;;
61391;SDS011;47261;52.892;5.738;2024-03-22T00:55:09;38.43;;;18.80;;
61391;SDS011;47261;52.892;5.738;2024-03-22T00:57:34;35.37;;;18.13;;
61391;SDS011;47261;52.892;5.738;2024-03-22T01:00:00;38.22;;;21.05;;
61391;SDS011;47261;52.892;5.738;2024-03-22T01:02:26;38.57;;;21.80;;
61391;SDS011;47261;52.892;5.738;2024-03-22T01:04:51;37.93;;;17.73;;
61391;SDS011;47261;52.892;5.738;2024-03-22T01:07:17;37.13;;;17.13;;
61391;SDS011;47261;52.892;5.738;2024-03-22T01:09:42;37.80;;;17.77;;
61391;SDS011;47261;52.892;5.738;2024-03-22T01:12:09;34.50;;;14.93;;
61391;SDS011;47261;52.892;5.738;2024-03-22T01:14:35;48.15;;;22.65;;
61391;SDS011;47261;52.892;5.738;2024-03-22T01:17:01;47.55;;;21.33;;
61391;SDS011;47261;52.892;5.738;2024-03-22T01:19:27;42.53;;;19.70;;
61391;SDS011;47261;52.892;5.738;2024-03-22T01:21:53;39.85;;;17.00;;
61391;SDS011;47261;52.892;5.738;2024-03-22T01:24:18;35.03;;;15.63;;
61391;SDS011;47261;52.892;5.738;2024-03-22T01:26:44;34.35;;;17.27;;
61391;SDS011;47261;52.892;5.738;2024-03-22T01:29:10;41.50;;;18.50;;
61391;SDS011;47261;52.892;5.738;2024-03-22T01:31:35;43.75;;;19.80;;
61391;SDS011;47261;52.892;5.738;2024-03-22T01:34:01;39.00;;;17.70;;
61391;SDS011;47261;52.892;5.738;2024-03-22T01:36:27;43.10;;;20.33;;
61391;SDS011;47261;52.892;5.738;2024-03-22T01:38:52;52.53;;;22.37;;
61391;SDS011;47261;52.892;5.738;2024-03-22T01:41:18;41.77;;;19.43;;
61391;SDS011;47261;52.892;5.738;2024-03-22T01:43:43;52.20;;;20.58;;
61391;SDS011;47261;52.892;5.738;2024-03-22T01:46:09;43.37;;;19.37;;
61391;SDS011;47261;52.892;5.738;2024-03-22T01:48:35;51.60;;;18.58;;
61391;SDS011;47261;52.892;5.738;2024-03-22T01:51:01;43.60;;;21.03;;
61391;SDS011;47261;52.892;5.738;2024-03-22T01:53:29;40.38;;;17.63;;
61391;SDS011;47261;52.892;5.738;2024-03-22T01:55:55;42.30;;;19.65;;
61391;SDS011;47261;52.892;5.738;2024-03-22T01:58:21;55.70;;;22.75;;
61391;SDS011;47261;52.892;5.738;2024-03-22T02:00:47;54.67;;;21.30;;
61391;SDS011;47261;52.892;5.738;2024-03-22T02:03:12;47.00;;;22.35;;
61391;SDS011;47261;52.892;5.738;2024-03-22T02:05:38;45.17;;;18.63;;
61391;SDS011;47261;52.892;5.738;2024-03-22T02:08:04;52.78;;;25.45;;
61391;SDS011;47261;52.892;5.738;2024-03-22T02:10:30;52.13;;;21.87;;
61391;SDS011;47261;52.892;5.738;2024-03-22T02:12:56;44.03;;;18.40;;
61391;SDS011;47261;52.892;5.738;2024-03-22T02:15:21;48.80;;;19.65;;
61391;SDS011;47261;52.892;5.738;2024-03-22T02:17:47;47.00;;;22.07;;
61391;SDS011;47261;52.892;5.738;2024-03-22T02:20:13;52.25;;;19.25;;
61391;SDS011;47261;52.892;5.738;2024-03-22T02:22:38;54.43;;;22.50;;
61391;SDS011;47261;52.892;5.738;2024-03-22T02:25:04;47.60;;;18.57;;
61391;SDS011;47261;52.892;5.738;2024-03-22T02:27:30;47.85;;;19.23;;
61391;SDS011;47261;52.892;5.738;2024-03-22T02:29:55;48.00;;;22.67;;
61391;SDS011;47261;52.892;5.738;2024-03-22T02:32:21;49.92;;;20.80;;
61391;SDS011;47261;52.892;5.738;2024-03-22T02:34:47;45.60;;;17.77;;
61391;SDS011;47261;52.892;5.738;2024-03-22T02:37:12;45.47;;;20.05;;
61391;SDS011;47261;52.892;5.738;2024-03-22T02:39:38;40.03;;;17.07;;
61391;SDS011;47261;52.892;5.738;2024-03-22T02:42:04;43.13;;;14.65;;
61391;SDS011;47261;52.892;5.738;2024-03-22T02:44:29;50.10;;;17.23;;
61391;SDS011;47261;52.892;5.738;2024-03-22T02:46:55;52.53;;;20.85;;
61391;SDS011;47261;52.892;5.738;2024-03-22T02:49:20;48.00;;;18.07;;
61391;SDS011;47261;52.892;5.738;2024-03-22T02:51:46;57.10;;;19.20;;
61391;SDS011;47261;52.892;5.738;2024-03-22T02:54:12;52.63;;;18.75;;
61391;SDS011;47261;52.892;5.738;2024-03-22T02:56:37;41.87;;;19.50;;
61391;SDS011;47261;52.892;5.738;2024-03-22T02:59:03;47.30;;;17.40;;
61391;SDS011;47261;52.892;5.738;2024-03-22T03:01:28;39.00;;;16.27;;
61391;SDS011;47261;52.892;5.738;2024-03-22T03:03:54;37.87;;;17.83;;
61391;SDS011;47261;52.892;5.738;2024-03-22T03:06:20;36.72;;;14.85;;
61391;SDS011;47261;52.892;5.738;2024-03-22T03:08:45;41.10;;;19.80;;
61391;SDS011;47261;52.892;5.738;2024-03-22T03:11:11;55.10;;;18.50;;
61391;SDS011;47261;52.892;5.738;2024-03-22T03:13:39;40.83;;;16.17;;
61391;SDS011;47261;52.892;5.738;2024-03-22T03:16:04;46.80;;;19.90;;
61391;SDS011;47261;52.892;5.738;2024-03-22T03:18:30;48.85;;;18.38;;
61391;SDS011;47261;52.892;5.738;2024-03-22T03:20:56;43.33;;;18.33;;
61391;SDS011;47261;52.892;5.738;2024-03-22T03:23:21;49.80;;;16.83;;
61391;SDS011;47261;52.892;5.738;2024-03-22T03:25:47;44.97;;;18.67;;
61391;SDS011;47261;52.892;5.738;2024-03-22T03:28:13;39.23;;;16.13;;
61391;SDS011;47261;52.892;5.738;2024-03-22T03:30:39;37.47;;;15.07;;
61391;SDS011;47261;52.892;5.738;2024-03-22T03:33:05;45.80;;;21.30;;
61391;SDS011;47261;52.892;5.738;2024-03-22T03:35:30;53.43;;;18.33;;
61391;SDS011;47261;52.892;5.738;2024-03-22T03:37:56;41.17;;;18.53;;
61391;SDS011;47261;52.892;5.738;2024-03-22T03:40:21;57.00;;;19.77;;
61391;SDS011;47261;52.892;5.738;2024-03-22T03:42:49;36.97;;;17.13;;
61391;SDS011;47261;52.892;5.738;2024-03-22T03:45:15;43.83;;;18.43;;
61391;SDS011;47261;52.892;5.738;2024-03-22T03:47:41;49.55;;;18.75;;
61391;SDS011;47261;52.892;5.738;2024-03-22T03:50:07;37.27;;;16.47;;
61391;SDS011;47261;52.892;5.738;2024-03-22T03:52:33;35.58;;;16.67;;
61391;SDS011;47261;52.892;5.738;2024-03-22T03:54:58;42.00;;;16.67;;
61391;SDS011;47261;52.892;5.738;2024-03-22T03:57:24;40.60;;;16.92;;
61391;SDS011;47261;52.892;5.738;2024-03-22T03:59:49;33.10;;;15.90;;
61391;SDS011;47261;52.892;5.738;2024-03-22T04:02:15;38.17;;;15.77;;
61391;SDS011;47261;52.892;5.738;2024-03-22T04:04:41;39.93;;;15.60;;
61391;SDS011;47261;52.892;5.738;2024-03-22T04:07:06;40.07;;;14.13;;
61391;SDS011;47261;52.892;5.738;2024-03-22T04:09:32;38.45;;;15.55;;
61391;SDS011;47261;52.892;5.738;2024-03-22T04:11:58;47.67;;;18.20;;
61391;SDS011;47261;52.892;5.738;2024-03-22T04:14:24;46.23;;;19.67;;
61391;SDS011;47261;52.892;5.738;2024-03-22T04:16:53;46.20;;;15.82;;
61391;SDS011;47261;52.892;5.738;2024-03-22T04:19:20;38.30;;;13.77;;
61391;SDS011;47261;52.892;5.738;2024-03-22T04:21:46;35.13;;;13.17;;
61391;SDS011;47261;52.892;5.738;2024-03-22T04:24:13;36.22;;;14.90;;
61391;SDS011;47261;52.892;5.738;2024-03-22T04:26:38;28.73;;;10.27;;
61391;SDS011;47261;52.892;5.738;2024-03-22T04:29:04;26.77;;;10.88;;
61391;SDS011;47261;52.892;5.738;2024-03-22T04:31:30;32.33;;;14.73;;
61391;SDS011;47261;52.892;5.738;2024-03-22T04:33:55;35.50;;;12.18;;
61391;SDS011;47261;52.892;5.738;2024-03-22T04:36:21;32.47;;;13.43;;
61391;SDS011;47261;52.892;5.738;2024-03-22T04:38:47;31.33;;;11.95;;
61391;SDS011;47261;52.892;5.738;2024-03-22T04:41:13;34.15;;;13.32;;
61391;SDS011;47261;52.892;5.738;2024-03-22T04:43:38;33.70;;;12.07;;
61391;SDS011;47261;52.892;5.738;2024-03-22T04:46:04;26.93;;;12.77;;
61391;SDS011;47261;52.892;5.738;2024-03-22T04:48:30;24.55;;;9.45;;
61391;SDS011;47261;52.892;5.738;2024-03-22T04:50:55;29.93;;;10.53;;
61391;SDS011;47261;52.892;5.738;2024-03-22T04:53:21;30.25;;;11.20;;
61391;SDS011;47261;52.892;5.738;2024-03-22T04:55:47;31.37;;;12.30;;
61391;SDS011;47261;52.892;5.738;2024-03-22T04:58:14;28.45;;;11.65;;
61391;SDS011;47261;52.892;5.738;2024-03-22T05:00:43;30.27;;;12.13;;
61391;SDS011;47261;52.892;5.738;2024-03-22T05:03:09;19.42;;;8.27;;
61391;SDS011;47261;52.892;5.738;2024-03-22T05:05:35;31.67;;;11.70;;
61391;SDS011;47261;52.892;5.738;2024-03-22T05:08:01;38.25;;;7.72;;
61391;SDS011;47261;52.892;5.738;2024-03-22T05:10:27;33.03;;;12.43;;
61391;SDS011;47261;52.892;5.738;2024-03-22T05:12:56;26.30;;;11.35;;
61391;SDS011;47261;52.892;5.738;2024-03-22T05:15:22;26.17;;;10.33;;
61391;SDS011;47261;52.892;5.738;2024-03-22T05:17:50;35.55;;;11.80;;
61391;SDS011;47261;52.892;5.738;2024-03-22T05:20:19;27.58;;;11.15;;
61391;SDS011;47261;52.892;5.738;2024-03-22T05:22:45;24.13;;;9.80;;
61391;SDS011;47261;52.892;5.738;2024-03-22T05:25:11;18.77;;;9.73;;
61391;SDS011;47261;52.892;5.738;2024-03-22T05:27:39;24.90;;;8.55;;
61391;SDS011;47261;52.892;5.738;2024-03-22T05:30:05;23.20;;;9.15;;
61391;SDS011;47261;52.892;5.738;2024-03-22T05:32:32;46.95;;;14.40;;
61391;SDS011;47261;52.892;5.738;2024-03-22T05:34:58;37.13;;;11.77;;
61391;SDS011;47261;52.892;5.738;2024-03-22T05:37:23;21.50;;;8.93;;
61391;SDS011;47261;52.892;5.738;2024-03-22T05:39:49;36.50;;;10.15;;
61391;SDS011;47261;52.892;5.738;2024-03-22T05:42:14;34.63;;;13.07;;
61391;SDS011;47261;52.892;5.738;2024-03-22T05:44:40;28.73;;;9.20;;
61391;SDS011;47261;52.892;5.738;2024-03-22T05:47:06;32.47;;;12.40;;
61391;SDS011;47261;52.892;5.738;2024-03-22T05:49:31;30.97;;;10.70;;
61391;SDS011;47261;52.892;5.738;2024-03-22T05:51:57;35.40;;;10.80;;
61391;SDS011;47261;52.892;5.738;2024-03-22T05:54:23;28.38;;;9.40;;
61391;SDS011;47261;52.892;5.738;2024-03-22T05:56:48;19.33;;;7.10;;
61391;SDS011;47261;52.892;5.738;2024-03-22T05:59:14;26.03;;;7.90;;
61391;SDS011;47261;52.892;5.738;2024-03-22T06:01:40;30.47;;;9.50;;
61391;SDS011;47261;52.892;5.738;2024-03-22T06:04:05;25.07;;;9.00;;
61391;SDS011;47261;52.892;5.738;2024-03-22T06:06:32;27.42;;;9.95;;
61391;SDS011;47261;52.892;5.738;2024-03-22T06:08:59;38.97;;;10.70;;
61391;SDS011;47261;52.892;5.738;2024-03-22T06:11:27;34.37;;;10.17;;
61391;SDS011;47261;52.892;5.738;2024-03-22T06:13:53;22.50;;;8.07;;
61391;SDS011;47261;52.892;5.738;2024-03-22T06:16:18;35.03;;;11.07;;
61391;SDS011;47261;52.892;5.738;2024-03-22T06:18:44;34.95;;;9.82;;
61391;SDS011;47261;52.892;5.738;2024-03-22T06:21:10;24.03;;;7.23;;
61391;SDS011;47261;52.892;5.738;2024-03-22T06:23:35;34.17;;;9.93;;
61391;SDS011;47261;52.892;5.738;2024-03-22T06:26:01;26.77;;;7.80;;
61391;SDS011;47261;52.892;5.738;2024-03-22T06:28:28;21.50;;;7.63;;
61391;SDS011;47261;52.892;5.738;2024-03-22T06:30:54;34.58;;;11.30;;
61391;SDS011;47261;52.892;5.738;2024-03-22T06:33:20;33.47;;;9.65;;
61391;SDS011;47261;52.892;5.738;2024-03-22T06:35:46;33.33;;;9.33;;
61391;SDS011;47261;52.892;5.738;2024-03-22T06:38:12;31.33;;;9.30;;
61391;SDS011;47261;52.892;5.738;2024-03-22T06:40:38;24.38;;;9.90;;
61391;SDS011;47261;52.892;5.738;2024-03-22T06:43:03;30.33;;;11.30;;
61391;SDS011;47261;52.892;5.738;2024-03-22T06:45:29;37.10;;;11.80;;
61391;SDS011;47261;52.892;5.738;2024-03-22T06:47:55;23.60;;;7.83;;
61391;SDS011;47261;52.892;5.738;2024-03-22T06:50:21;30.73;;;9.02;;
61391;SDS011;47261;52.892;5.738;2024-03-22T06:52:52;30.63;;;10.10;;
61391;SDS011;47261;52.892;5.738;2024-03-22T06:55:19;35.88;;;11.40;;
61391;SDS011;47261;52.892;5.738;2024-03-22T06:57:48;36.10;;;11.53;;
61391;SDS011;47261;52.892;5.738;2024-03-22T07:00:14;28.50;;;10.55;;
61391;SDS011;47261;52.892;5.738;2024-03-22T07:02:40;34.08;;;11.43;;
61391;SDS011;47261;52.892;5.738;2024-03-22T07:05:09;27.40;;;9.37;;
61391;SDS011;47261;52.892;5.738;2024-03-22T07:07:36;22.30;;;8.55;;
61391;SDS011;47261;52.892;5.738;2024-03-22T07:10:02;23.40;;;8.70;;
61391;SDS011;47261;52.892;5.738;2024-03-22T07:12:28;15.75;;;7.15;;
61391;SDS011;47261;52.892;5.738;2024-03-22T07:14:57;29.03;;;10.00;;
61391;SDS011;47261;52.892;5.738;2024-03-22T07:17:24;18.23;;;6.78;;
61391;SDS011;47261;52.892;5.738;2024-03-22T07:19:52;19.77;;;8.20;;
61391;SDS011;47261;52.892;5.738;2024-03-22T07:22:18;25.73;;;9.50;;
61391;SDS011;47261;52.892;5.738;2024-03-22T07:24:45;20.17;;;8.57;;
61391;SDS011;47261;52.892;5.738;2024-03-22T07:27:11;21.20;;;9.10;;
61391;SDS011;47261;52.892;5.738;2024-03-22T07:29:37;25.23;;;9.63;;
61391;SDS011;47261;52.892;5.738;2024-03-22T07:32:02;27.43;;;9.20;;
61391;SDS011;47261;52.892;5.738;2024-03-22T07:34:29;26.45;;;10.57;;
61391;SDS011;47261;52.892;5.738;2024-03-22T07:36:54;25.85;;;9.32;;
61391;SDS011;47261;52.892;5.738;2024-03-22T07:39:20;30.80;;;9.07;;
61391;SDS011;47261;52.892;5.738;2024-03-22T07:41:46;27.83;;;8.15;;
61391;SDS011;47261;52.892;5.738;2024-03-22T07:44:11;21.70;;;8.63;;
61391;SDS011;47261;52.892;5.738;2024-03-22T07:46:37;23.23;;;8.40;;
61391;SDS011;47261;52.892;5.738;2024-03-22T07:49:03;37.80;;;11.33;;
61391;SDS011;47261;52.892;5.738;2024-03-22T07:51:29;31.23;;;10.90;;
61391;SDS011;47261;52.892;5.738;2024-03-22T07:53:55;26.60;;;9.55;;
61391;SDS011;47261;52.892;5.738;2024-03-22T07:56:21;35.17;;;11.53;;
61391;SDS011;47261;52.892;5.738;2024-03-22T07:58:47;38.17;;;10.63;;
61391;SDS011;47261;52.892;5.738;2024-03-22T08:01:13;33.75;;;10.55;;
61391;SDS011;47261;52.892;5.738;2024-03-22T08:03:38;36.10;;;11.10;;
61391;SDS011;47261;52.892;5.738;2024-03-22T08:06:04;34.08;;;10.95;;
61391;SDS011;47261;52.892;5.738;2024-03-22T08:08:30;27.93;;;11.30;;
61391;SDS011;47261;52.892;5.738;2024-03-22T08:10:56;37.72;;;12.27;;
61391;SDS011;47261;52.892;5.738;2024-03-22T08:13:21;38.33;;;12.33;;
61391;SDS011;47261;52.892;5.738;2024-03-22T08:15:47;36.47;;;12.27;;
61391;SDS011;47261;52.892;5.738;2024-03-22T08:18:13;39.17;;;13.83;;
61391;SDS011;47261;52.892;5.738;2024-03-22T08:20:38;36.45;;;13.52;;
61391;SDS011;47261;52.892;5.738;2024-03-22T08:23:04;29.47;;;11.23;;
61391;SDS011;47261;52.892;5.738;2024-03-22T08:25:30;35.20;;;10.88;;
61391;SDS011;47261;52.892;5.738;2024-03-22T08:27:56;38.05;;;13.05;;
61391;SDS011;47261;52.892;5.738;2024-03-22T08:30:23;33.43;;;10.20;;
61391;SDS011;47261;52.892;5.738;2024-03-22T08:32:49;36.90;;;11.13;;
61391;SDS011;47261;52.892;5.738;2024-03-22T08:35:14;34.50;;;10.77;;
61391;SDS011;47261;52.892;5.738;2024-03-22T08:37:40;36.63;;;11.23;;
61391;SDS011;47261;52.892;5.738;2024-03-22T08:40:06;39.90;;;12.15;;
61391;SDS011;47261;52.892;5.738;2024-03-22T08:42:32;35.00;;;13.03;;
61391;SDS011;47261;52.892;5.738;2024-03-22T08:44:58;50.35;;;14.18;;
61391;SDS011;47261;52.892;5.738;2024-03-22T08:47:24;37.73;;;13.13;;
61391;SDS011;47261;52.892;5.738;2024-03-22T08:49:50;25.92;;;9.15;;
61391;SDS011;47261;52.892;5.738;2024-03-22T08:52:15;39.00;;;12.53;;
61391;SDS011;47261;52.892;5.738;2024-03-22T08:54:41;42.88;;;13.05;;
61391;SDS011;47261;52.892;5.738;2024-03-22T08:57:06;33.73;;;11.47;;
61391;SDS011;47261;52.892;5.738;2024-03-22T08:59:32;24.40;;;8.63;;
61391;SDS011;47261;52.892;5.738;2024-03-22T09:01:57;37.70;;;13.50;;
61391;SDS011;47261;52.892;5.738;2024-03-22T09:04:24;40.08;;;12.60;;
61391;SDS011;47261;52.892;5.738;2024-03-22T09:06:50;38.47;;;14.73;;
61391;SDS011;47261;52.892;5.738;2024-03-22T09:09:16;21.35;;;8.57;;
61391;SDS011;47261;52.892;5.738;2024-03-22T09:11:42;37.40;;;10.80;;
61391;SDS011;47261;52.892;5.738;2024-03-22T09:14:08;23.90;;;8.75;;
61391;SDS011;47261;52.892;5.738;2024-03-22T09:16:34;29.55;;;10.80;;
61391;SDS011;47261;52.892;5.738;2024-03-22T09:18:59;28.83;;;10.37;;
61391;SDS011;47261;52.892;5.738;2024-03-22T09:21:25;34.43;;;10.67;;
61391;SDS011;47261;52.892;5.738;2024-03-22T09:23:51;33.95;;;12.70;;
61391;SDS011;47261;52.892;5.738;2024-03-22T09:26:16;19.20;;;8.00;;
61391;SDS011;47261;52.892;5.738;2024-03-22T09:28:42;31.38;;;10.23;;
61391;SDS011;47261;52.892;5.738;2024-03-22T09:31:10;34.05;;;12.13;;
61391;SDS011;47261;52.892;5.738;2024-03-22T09:33:36;21.43;;;8.47;;
61391;SDS011;47261;52.892;5.738;2024-03-22T09:36:02;28.27;;;12.53;;
61391;SDS011;47261;52.892;5.738;2024-03-22T09:38:28;16.50;;;6.65;;
61391;SDS011;47261;52.892;5.738;2024-03-22T09:40:54;24.98;;;8.50;;
61391;SDS011;47261;52.892;5.738;2024-03-22T09:43:20;19.48;;;7.15;;
61391;SDS011;47261;52.892;5.738;2024-03-22T09:45:47;14.65;;;4.15;;
61391;SDS011;47261;52.892;5.738;2024-03-22T09:48:15;18.33;;;6.33;;
61391;SDS011;47261;52.892;5.738;2024-03-22T09:50:47;10.98;;;4.07;;
61391;SDS011;47261;52.892;5.738;2024-03-22T09:53:13;15.73;;;5.43;;
61391;SDS011;47261;52.892;5.738;2024-03-22T09:55:46;13.00;;;5.05;;
61391;SDS011;47261;52.892;5.738;2024-03-22T09:58:15;8.77;;;3.42;;
61391;SDS011;47261;52.892;5.738;2024-03-22T10:00:42;10.63;;;3.73;;
61391;SDS011;47261;52.892;5.738;2024-03-22T10:03:08;11.95;;;4.60;;
61391;SDS011;47261;52.892;5.738;2024-03-22T10:05:35;18.52;;;7.72;;
61391;SDS011;47261;52.892;5.738;2024-03-22T10:08:01;10.43;;;4.28;;
61391;SDS011;47261;52.892;5.738;2024-03-22T10:10:28;7.80;;;3.63;;
61391;SDS011;47261;52.892;5.738;2024-03-22T10:12:53;13.27;;;4.15;;
61391;SDS011;47261;52.892;5.738;2024-03-22T10:15:19;12.43;;;3.90;;
61391;SDS011;47261;52.892;5.738;2024-03-22T10:17:45;11.00;;;3.30;;
61391;SDS011;47261;52.892;5.738;2024-03-22T10:20:14;8.50;;;3.17;;
61391;SDS011;47261;52.892;5.738;2024-03-22T10:22:43;9.57;;;3.40;;
61391;SDS011;47261;52.892;5.738;2024-03-22T10:25:13;8.55;;;2.75;;
61391;SDS011;47261;52.892;5.738;2024-03-22T10:27:39;5.83;;;2.30;;
61391;SDS011;47261;52.892;5.738;2024-03-22T10:30:09;5.73;;;1.80;;
61391;SDS011;47261;52.892;5.738;2024-03-22T10:32:36;10.82;;;2.90;;
61391;SDS011;47261;52.892;5.738;2024-03-22T10:35:05;8.48;;;2.83;;
61391;SDS011;47261;52.892;5.738;2024-03-22T10:37:32;13.95;;;5.90;;
61391;SDS011;47261;52.892;5.738;2024-03-22T10:40:00;7.43;;;3.40;;
61391;SDS011;47261;52.892;5.738;2024-03-22T10:42:32;7.33;;;3.00;;
61391;SDS011;47261;52.892;5.738;2024-03-22T10:45:05;9.52;;;2.95;;
61391;SDS011;47261;52.892;5.738;2024-03-22T10:47:33;7.32;;;3.10;;
61391;SDS011;47261;52.892;5.738;2024-03-22T10:50:09;11.35;;;3.17;;
61391;SDS011;47261;52.892;5.738;2024-03-22T10:55:20;9.20;;;3.03;;
61391;SDS011;47261;52.892;5.738;2024-03-22T10:57:53;6.03;;;2.00;;
61391;SDS011;47261;52.892;5.738;2024-03-22T11:00:27;7.28;;;2.53;;
61391;SDS011;47261;52.892;5.738;2024-03-22T11:02:56;7.03;;;2.35;;
61391;SDS011;47261;52.892;5.738;2024-03-22T11:05:22;6.93;;;2.27;;
61391;SDS011;47261;52.892;5.738;2024-03-22T11:07:47;5.07;;;1.88;;
61391;SDS011;47261;52.892;5.738;2024-03-22T11:10:25;6.20;;;2.50;;
61391;SDS011;47261;52.892;5.738;2024-03-22T11:12:54;5.57;;;2.13;;
61391;SDS011;47261;52.892;5.738;2024-03-22T11:15:21;6.53;;;2.08;;
61391;SDS011;47261;52.892;5.738;2024-03-22T11:17:47;7.82;;;2.25;;
61391;SDS011;47261;52.892;5.738;2024-03-22T11:20:14;4.47;;;1.30;;
61391;SDS011;47261;52.892;5.738;2024-03-22T11:22:40;5.75;;;1.75;;
61391;SDS011;47261;52.892;5.738;2024-03-22T11:25:06;8.00;;;1.83;;
61391;SDS011;47261;52.892;5.738;2024-03-22T11:27:32;4.07;;;1.10;;
61391;SDS011;47261;52.892;5.738;2024-03-22T11:29:58;4.73;;;1.70;;
61391;SDS011;47261;52.892;5.738;2024-03-22T11:32:23;4.60;;;1.13;;
61391;SDS011;47261;52.892;5.738;2024-03-22T11:34:49;8.05;;;2.25;;
61391;SDS011;47261;52.892;5.738;2024-03-22T11:37:15;8.48;;;1.83;;
61391;SDS011;47261;52.892;5.738;2024-03-22T11:39:41;5.60;;;1.43;;
61391;SDS011;47261;52.892;5.738;2024-03-22T11:42:06;7.32;;;1.52;;
61391;SDS011;47261;52.892;5.738;2024-03-22T11:44:34;6.80;;;1.60;;
61391;SDS011;47261;52.892;5.738;2024-03-22T11:47:02;12.18;;;2.90;;
61391;SDS011;47261;52.892;5.738;2024-03-22T11:49:29;6.18;;;1.27;;
61391;SDS011;47261;52.892;5.738;2024-03-22T11:51:57;7.70;;;1.52;;
61391;SDS011;47261;52.892;5.738;2024-03-22T11:54:23;9.67;;;3.63;;
61391;SDS011;47261;52.892;5.738;2024-03-22T11:56:49;17.50;;;3.50;;
61391;SDS011;47261;52.892;5.738;2024-03-22T11:59:15;15.05;;;3.92;;
61391;SDS011;47261;52.892;5.738;2024-03-22T12:01:44;16.73;;;4.43;;
61391;SDS011;47261;52.892;5.738;2024-03-22T12:04:09;10.88;;;3.17;;
61391;SDS011;47261;52.892;5.738;2024-03-22T12:06:41;10.23;;;3.15;;
61391;SDS011;47261;52.892;5.738;2024-03-22T12:09:07;14.57;;;3.87;;
61391;SDS011;47261;52.892;5.738;2024-03-22T12:11:34;6.07;;;2.33;;
61391;SDS011;47261;52.892;5.738;2024-03-22T12:14:00;14.50;;;4.40;;
61391;SDS011;47261;52.892;5.738;2024-03-22T12:16:25;12.90;;;2.90;;
61391;SDS011;47261;52.892;5.738;2024-03-22T12:18:51;13.07;;;3.73;;
61391;SDS011;47261;52.892;5.738;2024-03-22T12:21:17;10.30;;;3.03;;
61391;SDS011;47261;52.892;5.738;2024-03-22T12:23:42;14.07;;;4.17;;
61391;SDS011;47261;52.892;5.738;2024-03-22T12:26:08;8.03;;;3.67;;
61391;SDS011;47261;52.892;5.738;2024-03-22T12:28:33;15.68;;;4.47;;
61391;SDS011;47261;52.892;5.738;2024-03-22T12:30:59;13.73;;;4.23;;
61391;SDS011;47261;52.892;5.738;2024-03-22T12:33:24;10.40;;;3.87;;
61391;SDS011;47261;52.892;5.738;2024-03-22T12:35:50;8.73;;;3.30;;
61391;SDS011;47261;52.892;5.738;2024-03-22T12:38:16;14.67;;;4.93;;
61391;SDS011;47261;52.892;5.738;2024-03-22T12:40:42;12.32;;;4.63;;
61391;SDS011;47261;52.892;5.738;2024-03-22T12:43:09;19.17;;;5.40;;
61391;SDS011;47261;52.892;5.738;2024-03-22T12:45:35;18.20;;;4.67;;
61391;SDS011;47261;52.892;5.738;2024-03-22T12:48:01;18.20;;;5.13;;
61391;SDS011;47261;52.892;5.738;2024-03-22T12:50:27;12.30;;;4.30;;
61391;SDS011;47261;52.892;5.738;2024-03-22T12:52:52;10.70;;;3.88;;
61391;SDS011;47261;52.892;5.738;2024-03-22T12:55:18;14.03;;;3.93;;
61391;SDS011;47261;52.892;5.738;2024-03-22T12:57:44;11.33;;;4.00;;
61391;SDS011;47261;52.892;5.738;2024-03-22T13:00:10;12.25;;;3.58;;
61391;SDS011;47261;52.892;5.738;2024-03-22T13:02:43;12.60;;;2.63;;
61391;SDS011;47261;52.892;5.738;2024-03-22T13:05:12;16.90;;;3.83;;
61391;SDS011;47261;52.892;5.738;2024-03-22T13:07:38;10.45;;;3.20;;
61391;SDS011;47261;52.892;5.738;2024-03-22T13:10:04;19.80;;;4.10;;
61391;SDS011;47261;52.892;5.738;2024-03-22T13:12:30;11.80;;;3.05;;
61391;SDS011;47261;52.892;5.738;2024-03-22T13:14:56;14.93;;;3.07;;
61391;SDS011;47261;52.892;5.738;2024-03-22T13:17:22;13.10;;;3.67;;
61391;SDS011;47261;52.892;5.738;2024-03-22T13:19:48;14.13;;;2.78;;
61391;SDS011;47261;52.892;5.738;2024-03-22T13:22:14;12.57;;;2.97;;
61391;SDS011;47261;52.892;5.738;2024-03-22T13:24:43;9.68;;;2.60;;
61391;SDS011;47261;52.892;5.738;2024-03-22T13:27:09;10.25;;;2.70;;
61391;SDS011;47261;52.892;5.738;2024-03-22T13:29:35;8.57;;;2.10;;
61391;SDS011;47261;52.892;5.738;2024-03-22T13:32:00;29.92;;;4.28;;
61391;SDS011;47261;52.892;5.738;2024-03-22T13:34:26;8.27;;;2.17;;
61391;SDS011;47261;52.892;5.738;2024-03-22T13:36:52;11.63;;;2.13;;
61391;SDS011;47261;52.892;5.738;2024-03-22T13:39:17;12.77;;;2.72;;
61391;SDS011;47261;52.892;5.738;2024-03-22T13:41:43;12.77;;;3.00;;
61391;SDS011;47261;52.892;5.738;2024-03-22T13:44:08;13.20;;;2.13;;
61391;SDS011;47261;52.892;5.738;2024-03-22T13:46:34;16.67;;;2.53;;
61391;SDS011;47261;52.892;5.738;2024-03-22T13:49:12;12.15;;;2.63;;
61391;SDS011;47261;52.892;5.738;2024-03-22T13:51:40;17.67;;;2.63;;
61391;SDS011;47261;52.892;5.738;2024-03-22T13:54:06;10.53;;;1.60;;
61391;SDS011;47261;52.892;5.738;2024-03-22T13:56:32;9.50;;;1.73;;
61391;SDS011;47261;52.892;5.738;2024-03-22T13:58:57;9.70;;;1.85;;
61391;SDS011;47261;52.892;5.738;2024-03-22T14:01:23;9.40;;;0.80;;
61391;SDS011;47261;52.892;5.738;2024-03-22T14:03:48;12.18;;;1.38;;
61391;SDS011;47261;52.892;5.738;2024-03-22T14:06:14;6.30;;;1.30;;
61391;SDS011;47261;52.892;5.738;2024-03-22T14:08:39;12.53;;;1.20;;
61391;SDS011;47261;52.892;5.738;2024-03-22T14:11:05;10.45;;;1.30;;
61391;SDS011;47261;52.892;5.738;2024-03-22T14:13:31;12.30;;;1.37;;
61391;SDS011;47261;52.892;5.738;2024-03-22T14:15:56;3.53;;;0.77;;
61391;SDS011;47261;52.892;5.738;2024-03-22T14:18:22;6.50;;;0.90;;
61391;SDS011;47261;52.892;5.738;2024-03-22T14:20:48;4.53;;;0.90;;
61391;SDS011;47261;52.892;5.738;2024-03-22T14:23:13;8.00;;;0.90;;
61391;SDS011;47261;52.892;5.738;2024-03-22T14:25:39;6.90;;;1.00;;